sensor_id;sensor_type;location;lat;lon;timestamp;pressure;altitude;pressure_sealevel;temperature;humidity
77011;BME280;65945;53.148;17.956;2024-02-15T00:02:17;101461.56;;;6.00;93.72
77011;BME280;65945;53.148;17.956;2024-02-15T00:04:44;101465.52;;;6.01;94.14
77011;BME280;65945;53.148;17.956;2024-02-15T00:07:11;101466.30;;;6.02;94.35
77011;BME280;65945;53.148;17.956;2024-02-15T00:09:38;101465.21;;;6.03;94.32
77011;BME280;65945;53.148;17.956;2024-02-15T00:12:04;101466.13;;;6.04;94.44
77011;BME280;65945;53.148;17.956;2024-02-15T00:14:31;101462.58;;;6.06;94.42
77011;BME280;65945;53.148;17.956;2024-02-15T00:16:58;101459.52;;;6.08;94.62
77011;BME280;65945;53.148;17.956;2024-02-15T00:19:25;101459.14;;;6.09;94.49
77011;BME280;65945;53.148;17.956;2024-02-15T00:21:51;101458.58;;;6.10;94.54
77011;BME280;65945;53.148;17.956;2024-02-15T00:24:18;101455.55;;;6.11;94.58
77011;BME280;65945;53.148;17.956;2024-02-15T00:26:46;101455.66;;;6.13;94.78
77011;BME280;65945;53.148;17.956;2024-02-15T00:29:14;101456.48;;;6.15;94.50
77011;BME280;65945;53.148;17.956;2024-02-15T00:31:41;101452.16;;;6.16;94.83
77011;BME280;65945;53.148;17.956;2024-02-15T00:34:07;101452.50;;;6.17;94.58
77011;BME280;65945;53.148;17.956;2024-02-15T00:36:35;101450.36;;;6.18;94.95
77011;BME280;65945;53.148;17.956;2024-02-15T00:39:01;101457.56;;;6.19;94.80
77011;BME280;65945;53.148;17.956;2024-02-15T00:41:31;101452.10;;;6.21;95.00
77011;BME280;65945;53.148;17.956;2024-02-15T00:44:00;101454.73;;;6.22;95.03
77011;BME280;65945;53.148;17.956;2024-02-15T00:46:26;101454.27;;;6.23;94.99
77011;BME280;65945;53.148;17.956;2024-02-15T00:48:55;101455.27;;;6.24;95.14
77011;BME280;65945;53.148;17.956;2024-02-15T00:51:22;101452.05;;;6.25;95.36
77011;BME280;65945;53.148;17.956;2024-02-15T00:53:49;101453.72;;;6.27;95.11
77011;BME280;65945;53.148;17.956;2024-02-15T00:56:16;101450.60;;;6.28;95.37
77011;BME280;65945;53.148;17.956;2024-02-15T00:58:42;101452.20;;;6.30;95.26
77011;BME280;65945;53.148;17.956;2024-02-15T01:01:09;101452.50;;;6.31;95.33
77011;BME280;65945;53.148;17.956;2024-02-15T01:03:37;101454.59;;;6.32;95.48
77011;BME280;65945;53.148;17.956;2024-02-15T01:06:04;101455.00;;;6.33;95.43
77011;BME280;65945;53.148;17.956;2024-02-15T01:08:32;101449.98;;;6.34;95.47
77011;BME280;65945;53.148;17.956;2024-02-15T01:10:59;101447.83;;;6.35;95.64
77011;BME280;65945;53.148;17.956;2024-02-15T01:13:25;101446.84;;;6.36;95.30
77011;BME280;65945;53.148;17.956;2024-02-15T01:15:52;101446.50;;;6.37;95.41
77011;BME280;65945;53.148;17.956;2024-02-15T01:18:19;101451.69;;;6.38;95.49
77011;BME280;65945;53.148;17.956;2024-02-15T01:20:45;101448.80;;;6.39;95.67
77011;BME280;65945;53.148;17.956;2024-02-15T01:23:12;101451.91;;;6.40;95.69
77011;BME280;65945;53.148;17.956;2024-02-15T01:25:39;101444.96;;;6.41;95.78
77011;BME280;65945;53.148;17.956;2024-02-15T01:28:06;101444.26;;;6.42;95.92
77011;BME280;65945;53.148;17.956;2024-02-15T01:30:33;101444.60;;;6.43;95.89
77011;BME280;65945;53.148;17.956;2024-02-15T01:32:59;101443.52;;;6.44;95.88
77011;BME280;65945;53.148;17.956;2024-02-15T01:35:27;101448.27;;;6.45;95.92
77011;BME280;65945;53.148;17.956;2024-02-15T01:37:54;101446.77;;;6.46;95.79
77011;BME280;65945;53.148;17.956;2024-02-15T01:40:20;101444.45;;;6.47;95.91
77011;BME280;65945;53.148;17.956;2024-02-15T01:42:47;101439.90;;;6.49;95.88
77011;BME280;65945;53.148;17.956;2024-02-15T01:45:16;101435.40;;;6.50;96.00
77011;BME280;65945;53.148;17.956;2024-02-15T01:47:43;101435.54;;;6.51;95.93
77011;BME280;65945;53.148;17.956;2024-02-15T01:50:13;101437.09;;;6.52;96.23
77011;BME280;65945;53.148;17.956;2024-02-15T01:52:40;101433.09;;;6.53;95.97
77011;BME280;65945;53.148;17.956;2024-02-15T01:55:07;101431.52;;;6.54;96.12
77011;BME280;65945;53.148;17.956;2024-02-15T01:57:35;101431.80;;;6.55;96.07
77011;BME280;65945;53.148;17.956;2024-02-15T02:00:06;101433.38;;;6.56;96.27
77011;BME280;65945;53.148;17.956;2024-02-15T02:02:38;101428.89;;;6.58;96.09
77011;BME280;65945;53.148;17.956;2024-02-15T02:05:06;101428.75;;;6.58;96.13
77011;BME280;65945;53.148;17.956;2024-02-15T02:07:32;101429.42;;;6.59;96.26
77011;BME280;65945;53.148;17.956;2024-02-15T02:09:59;101428.58;;;6.61;96.35
77011;BME280;65945;53.148;17.956;2024-02-15T02:12:27;101425.96;;;6.62;96.39
77011;BME280;65945;53.148;17.956;2024-02-15T02:14:54;101428.89;;;6.64;96.45
77011;BME280;65945;53.148;17.956;2024-02-15T02:17:21;101426.16;;;6.64;96.47
77011;BME280;65945;53.148;17.956;2024-02-15T02:19:48;101422.95;;;6.65;96.49
77011;BME280;65945;53.148;17.956;2024-02-15T02:22:18;101421.91;;;6.66;96.51
77011;BME280;65945;53.148;17.956;2024-02-15T02:25:10;101420.23;;;6.67;96.53
77011;BME280;65945;53.148;17.956;2024-02-15T02:27:37;101420.39;;;6.68;96.49
77011;BME280;65945;53.148;17.956;2024-02-15T02:30:05;101418.77;;;6.68;96.53
77011;BME280;65945;53.148;17.956;2024-02-15T02:32:41;101418.09;;;6.70;96.65
77011;BME280;65945;53.148;17.956;2024-02-15T02:35:08;101419.56;;;6.71;96.54
77011;BME280;65945;53.148;17.956;2024-02-15T02:37:39;101417.01;;;6.71;96.67
77011;BME280;65945;53.148;17.956;2024-02-15T02:40:06;101416.08;;;6.73;96.65
77011;BME280;65945;53.148;17.956;2024-02-15T02:42:45;101416.91;;;6.72;96.76
77011;BME280;65945;53.148;17.956;2024-02-15T02:45:12;101412.94;;;6.74;96.59
77011;BME280;65945;53.148;17.956;2024-02-15T02:47:39;101410.02;;;6.74;96.75
77011;BME280;65945;53.148;17.956;2024-02-15T02:50:06;101412.95;;;6.75;96.86
77011;BME280;65945;53.148;17.956;2024-02-15T02:52:34;101412.68;;;6.76;96.73
77011;BME280;65945;53.148;17.956;2024-02-15T02:55:06;101416.68;;;6.77;96.80
77011;BME280;65945;53.148;17.956;2024-02-15T02:57:36;101412.27;;;6.78;97.08
77011;BME280;65945;53.148;17.956;2024-02-15T03:00:10;101415.41;;;6.79;96.96
77011;BME280;65945;53.148;17.956;2024-02-15T03:02:39;101412.95;;;6.80;97.02
77011;BME280;65945;53.148;17.956;2024-02-15T03:05:07;101415.42;;;6.81;96.91
77011;BME280;65945;53.148;17.956;2024-02-15T03:07:35;101413.27;;;6.82;97.08
77011;BME280;65945;53.148;17.956;2024-02-15T03:10:03;101410.36;;;6.83;97.04
77011;BME280;65945;53.148;17.956;2024-02-15T03:12:39;101407.98;;;6.84;97.04
77011;BME280;65945;53.148;17.956;2024-02-15T03:15:07;101405.65;;;6.86;97.16
77011;BME280;65945;53.148;17.956;2024-02-15T03:17:41;101408.96;;;6.87;97.28
77011;BME280;65945;53.148;17.956;2024-02-15T03:20:09;101410.42;;;6.89;97.30
77011;BME280;65945;53.148;17.956;2024-02-15T03:22:57;101412.27;;;6.89;97.12
77011;BME280;65945;53.148;17.956;2024-02-15T03:25:25;101412.55;;;6.90;97.26
77011;BME280;65945;53.148;17.956;2024-02-15T03:27:53;101414.34;;;6.91;97.32
77011;BME280;65945;53.148;17.956;2024-02-15T03:30:27;101419.36;;;6.93;97.43
77011;BME280;65945;53.148;17.956;2024-02-15T03:32:55;101416.52;;;6.94;97.21
77011;BME280;65945;53.148;17.956;2024-02-15T03:35:28;101416.64;;;6.95;97.34
77011;BME280;65945;53.148;17.956;2024-02-15T03:37:57;101419.34;;;6.95;97.27
77011;BME280;65945;53.148;17.956;2024-02-15T03:40:25;101422.91;;;6.95;97.36
77011;BME280;65945;53.148;17.956;2024-02-15T03:42:56;101420.81;;;6.96;97.43
77011;BME280;65945;53.148;17.956;2024-02-15T03:45:23;101420.53;;;6.96;97.42
77011;BME280;65945;53.148;17.956;2024-02-15T03:47:52;101418.40;;;6.97;97.46
77011;BME280;65945;53.148;17.956;2024-02-15T03:50:19;101417.44;;;6.97;97.43
77011;BME280;65945;53.148;17.956;2024-02-15T03:52:48;101414.42;;;6.98;97.30
77011;BME280;65945;53.148;17.956;2024-02-15T03:55:16;101413.84;;;6.98;97.39
77011;BME280;65945;53.148;17.956;2024-02-15T03:57:43;101414.20;;;6.99;97.45
77011;BME280;65945;53.148;17.956;2024-02-15T04:00:10;101412.76;;;6.99;97.40
77011;BME280;65945;53.148;17.956;2024-02-15T04:02:37;101412.84;;;6.99;97.54
77011;BME280;65945;53.148;17.956;2024-02-15T04:05:07;101411.71;;;7.00;97.54
77011;BME280;65945;53.148;17.956;2024-02-15T04:07:35;101413.79;;;7.00;97.60
77011;BME280;65945;53.148;17.956;2024-02-15T04:10:04;101420.48;;;7.00;97.65
77011;BME280;65945;53.148;17.956;2024-02-15T04:12:32;101422.89;;;7.02;97.66
77011;BME280;65945;53.148;17.956;2024-02-15T04:14:59;101424.42;;;7.02;97.70
77011;BME280;65945;53.148;17.956;2024-02-15T04:17:38;101423.72;;;7.03;97.74
77011;BME280;65945;53.148;17.956;2024-02-15T04:20:05;101422.26;;;7.04;97.67
77011;BME280;65945;53.148;17.956;2024-02-15T04:22:33;101423.20;;;7.04;97.64
77011;BME280;65945;53.148;17.956;2024-02-15T04:25:04;101423.00;;;7.05;97.75
77011;BME280;65945;53.148;17.956;2024-02-15T04:27:33;101426.23;;;7.06;97.79
77011;BME280;65945;53.148;17.956;2024-02-15T04:29:59;101424.73;;;7.06;97.79
77011;BME280;65945;53.148;17.956;2024-02-15T04:32:26;101425.23;;;7.07;97.65
77011;BME280;65945;53.148;17.956;2024-02-15T04:34:53;101423.89;;;7.08;97.86
77011;BME280;65945;53.148;17.956;2024-02-15T04:37:19;101427.05;;;7.09;97.89
77011;BME280;65945;53.148;17.956;2024-02-15T04:39:47;101426.41;;;7.09;97.89
77011;BME280;65945;53.148;17.956;2024-02-15T04:42:14;101429.72;;;7.11;97.97
77011;BME280;65945;53.148;17.956;2024-02-15T04:44:42;101429.66;;;7.11;98.03
77011;BME280;65945;53.148;17.956;2024-02-15T04:47:08;101428.03;;;7.10;97.98
77011;BME280;65945;53.148;17.956;2024-02-15T04:49:35;101426.16;;;7.11;97.87
77011;BME280;65945;53.148;17.956;2024-02-15T04:52:05;101427.23;;;7.11;97.92
77011;BME280;65945;53.148;17.956;2024-02-15T04:54:33;101424.24;;;7.10;97.99
77011;BME280;65945;53.148;17.956;2024-02-15T04:57:00;101428.70;;;7.11;97.90
77011;BME280;65945;53.148;17.956;2024-02-15T04:59:27;101433.10;;;7.11;97.93
77011;BME280;65945;53.148;17.956;2024-02-15T05:01:55;101431.98;;;7.12;98.07
77011;BME280;65945;53.148;17.956;2024-02-15T05:04:25;101433.95;;;7.11;97.94
77011;BME280;65945;53.148;17.956;2024-02-15T05:06:51;101435.27;;;7.12;98.00
77011;BME280;65945;53.148;17.956;2024-02-15T05:09:19;101431.64;;;7.13;97.95
77011;BME280;65945;53.148;17.956;2024-02-15T05:11:46;101437.61;;;7.14;98.06
77011;BME280;65945;53.148;17.956;2024-02-15T05:14:14;101432.61;;;7.14;98.04
77011;BME280;65945;53.148;17.956;2024-02-15T05:16:46;101425.48;;;7.14;98.06
77011;BME280;65945;53.148;17.956;2024-02-15T05:19:17;101425.63;;;7.14;98.12
77011;BME280;65945;53.148;17.956;2024-02-15T05:21:45;101421.45;;;7.14;98.05
77011;BME280;65945;53.148;17.956;2024-02-15T05:24:16;101422.20;;;7.14;97.95
77011;BME280;65945;53.148;17.956;2024-02-15T05:26:44;101425.85;;;7.14;98.04
77011;BME280;65945;53.148;17.956;2024-02-15T05:29:15;101421.16;;;7.14;98.10
77011;BME280;65945;53.148;17.956;2024-02-15T05:31:43;101425.23;;;7.13;97.93
77011;BME280;65945;53.148;17.956;2024-02-15T05:34:10;101430.55;;;7.13;97.95
77011;BME280;65945;53.148;17.956;2024-02-15T05:36:38;101428.95;;;7.13;97.94
77011;BME280;65945;53.148;17.956;2024-02-15T05:39:05;101432.42;;;7.13;98.01
77011;BME280;65945;53.148;17.956;2024-02-15T05:41:32;101427.89;;;7.14;98.09
77011;BME280;65945;53.148;17.956;2024-02-15T05:43:59;101427.36;;;7.13;97.96
77011;BME280;65945;53.148;17.956;2024-02-15T05:46:26;101429.93;;;7.13;98.02
77011;BME280;65945;53.148;17.956;2024-02-15T05:48:54;101431.16;;;7.12;97.94
77011;BME280;65945;53.148;17.956;2024-02-15T05:51:22;101429.72;;;7.12;98.09
77011;BME280;65945;53.148;17.956;2024-02-15T05:53:49;101432.55;;;7.12;98.14
77011;BME280;65945;53.148;17.956;2024-02-15T05:56:16;101429.51;;;7.12;98.15
77011;BME280;65945;53.148;17.956;2024-02-15T05:58:43;101434.56;;;7.13;98.14
77011;BME280;65945;53.148;17.956;2024-02-15T06:01:09;101432.86;;;7.12;98.13
77011;BME280;65945;53.148;17.956;2024-02-15T06:03:39;101437.16;;;7.13;98.06
77011;BME280;65945;53.148;17.956;2024-02-15T06:06:07;101440.91;;;7.14;98.25
77011;BME280;65945;53.148;17.956;2024-02-15T06:08:34;101438.13;;;7.15;98.13
77011;BME280;65945;53.148;17.956;2024-02-15T06:11:02;101439.59;;;7.15;98.00
77011;BME280;65945;53.148;17.956;2024-02-15T06:13:31;101442.93;;;7.16;98.13
77011;BME280;65945;53.148;17.956;2024-02-15T06:15:58;101445.75;;;7.16;98.05
77011;BME280;65945;53.148;17.956;2024-02-15T06:18:26;101445.88;;;7.18;97.98
77011;BME280;65945;53.148;17.956;2024-02-15T06:20:59;101445.38;;;7.18;98.03
77011;BME280;65945;53.148;17.956;2024-02-15T06:23:26;101446.03;;;7.19;98.03
77011;BME280;65945;53.148;17.956;2024-02-15T06:25:55;101448.91;;;7.21;98.07
77011;BME280;65945;53.148;17.956;2024-02-15T06:28:25;101451.33;;;7.22;98.10
77011;BME280;65945;53.148;17.956;2024-02-15T06:31:11;101456.13;;;7.24;98.31
77011;BME280;65945;53.148;17.956;2024-02-15T06:33:57;101455.13;;;7.25;97.90
77011;BME280;65945;53.148;17.956;2024-02-15T06:36:53;101462.17;;;7.26;98.06
77011;BME280;65945;53.148;17.956;2024-02-15T06:39:39;101459.73;;;7.27;97.96
77011;BME280;65945;53.148;17.956;2024-02-15T06:42:09;101462.75;;;7.28;98.05
77011;BME280;65945;53.148;17.956;2024-02-15T06:44:37;101465.85;;;7.30;97.96
77011;BME280;65945;53.148;17.956;2024-02-15T06:47:07;101465.16;;;7.31;97.98
77011;BME280;65945;53.148;17.956;2024-02-15T06:49:35;101471.26;;;7.33;98.09
77011;BME280;65945;53.148;17.956;2024-02-15T06:52:01;101473.95;;;7.34;98.10
77011;BME280;65945;53.148;17.956;2024-02-15T06:54:28;101477.27;;;7.35;98.20
77011;BME280;65945;53.148;17.956;2024-02-15T06:56:55;101482.55;;;7.36;98.12
77011;BME280;65945;53.148;17.956;2024-02-15T06:59:22;101480.86;;;7.35;97.94
77011;BME280;65945;53.148;17.956;2024-02-15T07:01:51;101487.61;;;7.36;98.03
77011;BME280;65945;53.148;17.956;2024-02-15T07:04:19;101487.11;;;7.37;98.08
77011;BME280;65945;53.148;17.956;2024-02-15T07:06:47;101490.55;;;7.37;98.02
77011;BME280;65945;53.148;17.956;2024-02-15T07:09:15;101489.90;;;7.38;98.10
77011;BME280;65945;53.148;17.956;2024-02-15T07:11:44;101488.95;;;7.39;98.13
77011;BME280;65945;53.148;17.956;2024-02-15T07:14:13;101488.30;;;7.40;98.11
77011;BME280;65945;53.148;17.956;2024-02-15T07:16:40;101491.64;;;7.41;98.13
77011;BME280;65945;53.148;17.956;2024-02-15T07:19:07;101488.54;;;7.41;98.19
77011;BME280;65945;53.148;17.956;2024-02-15T07:21:35;101490.29;;;7.43;98.25
77011;BME280;65945;53.148;17.956;2024-02-15T07:24:03;101487.39;;;7.46;98.45
77011;BME280;65945;53.148;17.956;2024-02-15T07:26:31;101488.67;;;7.49;98.18
77011;BME280;65945;53.148;17.956;2024-02-15T07:28:57;101486.96;;;7.53;98.33
77011;BME280;65945;53.148;17.956;2024-02-15T07:31:27;101486.50;;;7.56;98.41
77011;BME280;65945;53.148;17.956;2024-02-15T07:33:55;101483.66;;;7.61;98.35
77011;BME280;65945;53.148;17.956;2024-02-15T07:36:23;101483.23;;;7.65;98.43
77011;BME280;65945;53.148;17.956;2024-02-15T07:38:50;101484.73;;;7.70;98.34
77011;BME280;65945;53.148;17.956;2024-02-15T07:41:18;101485.89;;;7.74;98.26
77011;BME280;65945;53.148;17.956;2024-02-15T07:43:46;101489.38;;;7.77;98.27
77011;BME280;65945;53.148;17.956;2024-02-15T07:46:14;101490.98;;;7.80;98.21
77011;BME280;65945;53.148;17.956;2024-02-15T07:48:43;101490.30;;;7.84;98.16
77011;BME280;65945;53.148;17.956;2024-02-15T07:51:17;101489.17;;;7.88;98.04
77011;BME280;65945;53.148;17.956;2024-02-15T07:53:47;101488.93;;;7.91;97.95
77011;BME280;65945;53.148;17.956;2024-02-15T07:56:15;101490.38;;;7.94;98.04
77011;BME280;65945;53.148;17.956;2024-02-15T07:58:43;101495.09;;;7.99;98.02
77011;BME280;65945;53.148;17.956;2024-02-15T08:01:14;101494.52;;;8.01;97.90
77011;BME280;65945;53.148;17.956;2024-02-15T08:03:42;101498.83;;;8.04;97.88
77011;BME280;65945;53.148;17.956;2024-02-15T08:06:14;101498.66;;;8.05;97.86
77011;BME280;65945;53.148;17.956;2024-02-15T08:08:42;101496.10;;;8.07;97.91
77011;BME280;65945;53.148;17.956;2024-02-15T08:11:16;101495.75;;;8.10;97.88
77011;BME280;65945;53.148;17.956;2024-02-15T08:13:51;101492.52;;;8.13;97.87
77011;BME280;65945;53.148;17.956;2024-02-15T08:16:21;101494.10;;;8.15;97.88
77011;BME280;65945;53.148;17.956;2024-02-15T08:18:53;101498.23;;;8.18;97.92
77011;BME280;65945;53.148;17.956;2024-02-15T08:21:27;101496.89;;;8.18;97.72
77011;BME280;65945;53.148;17.956;2024-02-15T08:23:55;101497.70;;;8.18;97.66
77011;BME280;65945;53.148;17.956;2024-02-15T08:26:22;101497.73;;;8.18;97.66
77011;BME280;65945;53.148;17.956;2024-02-15T08:28:49;101497.14;;;8.19;97.75
77011;BME280;65945;53.148;17.956;2024-02-15T08:31:15;101500.80;;;8.19;97.76
77011;BME280;65945;53.148;17.956;2024-02-15T08:33:42;101501.13;;;8.19;97.77
77011;BME280;65945;53.148;17.956;2024-02-15T08:36:12;101505.36;;;8.20;97.93
77011;BME280;65945;53.148;17.956;2024-02-15T08:38:42;101505.95;;;8.22;97.92
77011;BME280;65945;53.148;17.956;2024-02-15T08:41:09;101502.55;;;8.23;97.98
77011;BME280;65945;53.148;17.956;2024-02-15T08:43:37;101501.46;;;8.26;98.11
77011;BME280;65945;53.148;17.956;2024-02-15T08:46:06;101505.27;;;8.27;97.97
77011;BME280;65945;53.148;17.956;2024-02-15T08:48:34;101508.52;;;8.29;97.89
77011;BME280;65945;53.148;17.956;2024-02-15T08:51:02;101514.98;;;8.29;97.92
77011;BME280;65945;53.148;17.956;2024-02-15T08:53:28;101513.38;;;8.29;97.86
77011;BME280;65945;53.148;17.956;2024-02-15T08:55:55;101513.29;;;8.28;97.87
77011;BME280;65945;53.148;17.956;2024-02-15T08:58:22;101513.42;;;8.28;97.80
77011;BME280;65945;53.148;17.956;2024-02-15T09:00:48;101506.02;;;8.29;98.08
77011;BME280;65945;53.148;17.956;2024-02-15T09:03:15;101508.41;;;8.31;98.02
77011;BME280;65945;53.148;17.956;2024-02-15T09:05:43;101505.13;;;8.35;98.07
77011;BME280;65945;53.148;17.956;2024-02-15T09:08:09;101507.73;;;8.39;98.14
77011;BME280;65945;53.148;17.956;2024-02-15T09:10:36;101505.23;;;8.44;98.15
77011;BME280;65945;53.148;17.956;2024-02-15T09:13:05;101510.88;;;8.49;98.30
77011;BME280;65945;53.148;17.956;2024-02-15T09:15:33;101514.98;;;8.54;98.17
77011;BME280;65945;53.148;17.956;2024-02-15T09:18:00;101518.98;;;8.60;98.22
77011;BME280;65945;53.148;17.956;2024-02-15T09:20:26;101518.27;;;8.65;98.16
77011;BME280;65945;53.148;17.956;2024-02-15T09:22:55;101517.16;;;8.69;98.01
77011;BME280;65945;53.148;17.956;2024-02-15T09:25:23;101517.73;;;8.74;98.08
77011;BME280;65945;53.148;17.956;2024-02-15T09:27:50;101518.67;;;8.78;97.91
77011;BME280;65945;53.148;17.956;2024-02-15T09:30:17;101512.45;;;8.82;97.87
77011;BME280;65945;53.148;17.956;2024-02-15T09:32:44;101507.93;;;8.89;98.07
77011;BME280;65945;53.148;17.956;2024-02-15T09:35:12;101512.65;;;8.96;98.03
77011;BME280;65945;53.148;17.956;2024-02-15T09:37:45;101513.04;;;9.03;97.97
77011;BME280;65945;53.148;17.956;2024-02-15T09:40:12;101513.58;;;9.11;97.89
77011;BME280;65945;53.148;17.956;2024-02-15T09:42:41;101509.31;;;9.17;97.72
77011;BME280;65945;53.148;17.956;2024-02-15T09:45:12;101508.61;;;9.22;97.48
77011;BME280;65945;53.148;17.956;2024-02-15T09:47:43;101507.06;;;9.25;97.44
77011;BME280;65945;53.148;17.956;2024-02-15T09:50:14;101508.58;;;9.30;97.45
77011;BME280;65945;53.148;17.956;2024-02-15T09:55:14;101512.88;;;9.38;97.05
77011;BME280;65945;53.148;17.956;2024-02-15T09:57:45;101514.05;;;9.43;97.22
77011;BME280;65945;53.148;17.956;2024-02-15T10:00:16;101517.15;;;9.47;97.00
77011;BME280;65945;53.148;17.956;2024-02-15T10:02:44;101518.60;;;9.52;97.04
77011;BME280;65945;53.148;17.956;2024-02-15T10:05:12;101519.26;;;9.57;97.12
77011;BME280;65945;53.148;17.956;2024-02-15T10:07:40;101520.14;;;9.63;97.14
77011;BME280;65945;53.148;17.956;2024-02-15T10:12:43;101525.17;;;9.73;96.98
77011;BME280;65945;53.148;17.956;2024-02-15T10:15:10;101525.08;;;9.74;96.63
77011;BME280;65945;53.148;17.956;2024-02-15T10:17:37;101526.00;;;9.74;96.51
77011;BME280;65945;53.148;17.956;2024-02-15T10:20:04;101528.11;;;9.74;96.46
77011;BME280;65945;53.148;17.956;2024-02-15T10:22:32;101523.20;;;9.73;96.23
77011;BME280;65945;53.148;17.956;2024-02-15T10:25:14;101521.30;;;9.71;96.09
77011;BME280;65945;53.148;17.956;2024-02-15T10:27:41;101522.71;;;9.70;96.31
77011;BME280;65945;53.148;17.956;2024-02-15T10:30:18;101515.11;;;9.69;96.15
77011;BME280;65945;53.148;17.956;2024-02-15T10:32:46;101518.38;;;9.69;96.14
77011;BME280;65945;53.148;17.956;2024-02-15T10:35:21;101513.54;;;9.70;96.41
77011;BME280;65945;53.148;17.956;2024-02-15T10:37:49;101505.60;;;9.72;96.48
77011;BME280;65945;53.148;17.956;2024-02-15T10:40:20;101503.67;;;9.75;96.32
77011;BME280;65945;53.148;17.956;2024-02-15T10:42:47;101505.58;;;9.81;96.50
77011;BME280;65945;53.148;17.956;2024-02-15T10:45:15;101502.71;;;9.86;96.47
77011;BME280;65945;53.148;17.956;2024-02-15T10:47:45;101502.19;;;9.95;96.53
77011;BME280;65945;53.148;17.956;2024-02-15T10:50:14;101500.97;;;10.03;96.65
77011;BME280;65945;53.148;17.956;2024-02-15T10:52:55;101502.17;;;10.10;96.28
77011;BME280;65945;53.148;17.956;2024-02-15T10:55:36;101496.75;;;10.16;95.75
77011;BME280;65945;53.148;17.956;2024-02-15T10:58:06;101493.73;;;10.23;95.66
77011;BME280;65945;53.148;17.956;2024-02-15T11:00:34;101492.15;;;10.30;95.62
77011;BME280;65945;53.148;17.956;2024-02-15T11:03:04;101490.95;;;10.35;95.32
77011;BME280;65945;53.148;17.956;2024-02-15T11:05:34;101490.38;;;10.38;95.28
77011;BME280;65945;53.148;17.956;2024-02-15T11:08:10;101487.98;;;10.39;95.22
77011;BME280;65945;53.148;17.956;2024-02-15T11:10:38;101487.38;;;10.40;95.18
77011;BME280;65945;53.148;17.956;2024-02-15T11:13:10;101482.48;;;10.39;95.13
77011;BME280;65945;53.148;17.956;2024-02-15T11:15:46;101482.48;;;10.39;95.18
77011;BME280;65945;53.148;17.956;2024-02-15T11:18:41;101479.66;;;10.42;95.09
77011;BME280;65945;53.148;17.956;2024-02-15T11:21:11;101476.52;;;10.48;95.06
77011;BME280;65945;53.148;17.956;2024-02-15T11:23:38;101475.21;;;10.52;95.17
77011;BME280;65945;53.148;17.956;2024-02-15T11:26:08;101476.98;;;10.57;95.02
77011;BME280;65945;53.148;17.956;2024-02-15T11:28:36;101477.89;;;10.61;94.90
77011;BME280;65945;53.148;17.956;2024-02-15T11:31:08;101475.34;;;10.65;94.94
77011;BME280;65945;53.148;17.956;2024-02-15T11:33:36;101472.65;;;10.69;94.98
77011;BME280;65945;53.148;17.956;2024-02-15T11:36:10;101478.21;;;10.72;94.65
77011;BME280;65945;53.148;17.956;2024-02-15T11:38:41;101470.60;;;10.76;94.60
77011;BME280;65945;53.148;17.956;2024-02-15T11:41:09;101468.07;;;10.78;94.42
77011;BME280;65945;53.148;17.956;2024-02-15T11:46:12;101466.91;;;10.82;94.50
77011;BME280;65945;53.148;17.956;2024-02-15T11:48:42;101467.90;;;10.84;94.59
77011;BME280;65945;53.148;17.956;2024-02-15T11:51:09;101466.02;;;10.85;94.32
77011;BME280;65945;53.148;17.956;2024-02-15T11:53:38;101465.73;;;10.85;94.39
77011;BME280;65945;53.148;17.956;2024-02-15T11:56:07;101466.42;;;10.85;94.13
77011;BME280;65945;53.148;17.956;2024-02-15T11:58:37;101468.50;;;10.86;94.05
77011;BME280;65945;53.148;17.956;2024-02-15T12:01:18;101469.02;;;10.85;94.09
77011;BME280;65945;53.148;17.956;2024-02-15T12:04:04;101470.45;;;10.83;93.96
77011;BME280;65945;53.148;17.956;2024-02-15T12:06:49;101470.73;;;10.80;94.05
77011;BME280;65945;53.148;17.956;2024-02-15T12:09:35;101471.70;;;10.76;93.86
77011;BME280;65945;53.148;17.956;2024-02-15T12:12:20;101475.14;;;10.72;94.03
77011;BME280;65945;53.148;17.956;2024-02-15T12:15:06;101474.83;;;10.68;93.92
77011;BME280;65945;53.148;17.956;2024-02-15T12:17:51;101470.77;;;10.65;94.19
77011;BME280;65945;53.148;17.956;2024-02-15T12:20:36;101471.48;;;10.63;94.20
77011;BME280;65945;53.148;17.956;2024-02-15T12:23:03;101470.05;;;10.67;94.46
77011;BME280;65945;53.148;17.956;2024-02-15T12:25:33;101469.69;;;10.69;94.15
77011;BME280;65945;53.148;17.956;2024-02-15T12:28:00;101467.61;;;10.69;94.00
77011;BME280;65945;53.148;17.956;2024-02-15T12:30:33;101465.02;;;10.69;93.97
77011;BME280;65945;53.148;17.956;2024-02-15T12:33:12;101463.34;;;10.71;94.01
77011;BME280;65945;53.148;17.956;2024-02-15T12:35:45;101461.38;;;10.72;93.88
77011;BME280;65945;53.148;17.956;2024-02-15T12:38:12;101462.40;;;10.73;93.94
77011;BME280;65945;53.148;17.956;2024-02-15T12:40:43;101460.76;;;10.72;93.81
77011;BME280;65945;53.148;17.956;2024-02-15T12:43:12;101462.00;;;10.70;93.81
77011;BME280;65945;53.148;17.956;2024-02-15T12:45:41;101464.11;;;10.69;93.76
77011;BME280;65945;53.148;17.956;2024-02-15T12:48:08;101459.55;;;10.70;93.83
77011;BME280;65945;53.148;17.956;2024-02-15T12:50:36;101457.77;;;10.70;93.90
77011;BME280;65945;53.148;17.956;2024-02-15T12:53:03;101459.44;;;10.69;93.79
77011;BME280;65945;53.148;17.956;2024-02-15T12:55:30;101461.52;;;10.70;94.03
77011;BME280;65945;53.148;17.956;2024-02-15T12:58:12;101459.92;;;10.70;93.77
77011;BME280;65945;53.148;17.956;2024-02-15T13:00:40;101458.20;;;10.71;93.85
77011;BME280;65945;53.148;17.956;2024-02-15T13:03:07;101457.05;;;10.71;93.67
77011;BME280;65945;53.148;17.956;2024-02-15T13:05:38;101457.14;;;10.69;93.71
77011;BME280;65945;53.148;17.956;2024-02-15T13:08:05;101455.08;;;10.69;93.69